Time;durP1;ratioP1;P1;durP2;ratioP2;P2;SDS_P1;SDS_P2;PMS_P1;PMS_P2;Temp;Humidity;BMP_temperature;BMP_pressure;BME280_temperature;BME280_humidity;BME280_pressure;Samples;Min_cycle;Max_cycle;Signal;HPM_P1;HPM_P2
2022/04/25 00:02:17;;;;;;;8.20;3.95;;;;;;;;;;5029707;28;20550;-88
2022/04/25 00:04:43;;;;;;;10.02;4.05;;;;;;;;;;5014902;28;20049;-87
2022/04/25 00:07:09;;;;;;;9.07;4.35;;;;;;;;;;5016956;28;20053;-87
2022/04/25 00:09:35;;;;;;;10.18;4.72;;;;;;;;;;5024887;28;20071;-87
2022/04/25 00:12:02;;;;;;;9.23;4.32;;;;;;;;;;5012690;28;20056;-87
2022/04/25 00:14:28;;;;;;;8.25;4.35;;;;;;;;;;5006529;28;20092;-87
2022/04/25 00:16:56;;;;;;;7.18;4.25;;;;;;;;;;5028037;28;20045;-87
2022/04/25 00:19:25;;;;;;;7.95;4.05;;;;;;;;;;5012330;28;20049;-88
2022/04/25 00:21:51;;;;;;;8.55;4.70;;;;;;;;;;5008164;28;20042;-86
2022/04/25 00:24:18;;;;;;;7.95;5.07;;;;;;;;;;5009497;28;20041;-87
2022/04/25 00:26:44;;;;;;;11.05;4.70;;;;;;;;;;5023276;28;20049;-87
2022/04/25 00:29:11;;;;;;;6.35;3.92;;;;;;;;;;5026992;28;20045;-87
2022/04/25 00:31:38;;;;;;;7.85;4.80;;;;;;;;;;5028239;28;20077;-88
2022/04/25 00:34:04;;;;;;;6.97;4.68;;;;;;;;;;5030025;28;20107;-87
2022/04/25 00:36:30;;;;;;;9.73;4.50;;;;;;;;;;5015271;28;20505;-87
2022/04/25 00:38:55;;;;;;;8.68;4.35;;;;;;;;;;5009246;28;20065;-87
2022/04/25 00:41:22;;;;;;;8.05;4.22;;;;;;;;;;5010400;28;20468;-87
2022/04/25 00:43:48;;;;;;;6.60;4.40;;;;;;;;;;5030252;28;20046;-88
2022/04/25 00:46:21;;;;;;;9.70;4.25;;;;;;;;;;5022629;28;20046;-87
2022/04/25 00:48:47;;;;;;;9.32;4.45;;;;;;;;;;5029699;28;20052;-86
2022/04/25 00:51:13;;;;;;;6.65;4.28;;;;;;;;;;5010388;28;20053;-87
2022/04/25 00:53:39;;;;;;;9.25;4.40;;;;;;;;;;5030665;28;20048;-88
2022/04/25 00:56:07;;;;;;;8.73;4.40;;;;;;;;;;5028562;28;20425;-89
2022/04/25 00:58:33;;;;;;;6.60;4.28;;;;;;;;;;5032298;28;20504;-89
2022/04/25 01:00:59;;;;;;;9.95;4.50;;;;;;;;;;5011233;28;20536;-88
2022/04/25 01:03:25;;;;;;;9.18;4.63;;;;;;;;;;5015278;28;20046;-87
2022/04/25 01:05:52;;;;;;;7.60;4.20;;;;;;;;;;5009147;28;20538;-87
2022/04/25 01:08:19;;;;;;;7.85;4.78;;;;;;;;;;5029896;28;20404;-87
2022/04/25 01:10:45;;;;;;;8.88;4.30;;;;;;;;;;5021934;28;20045;-87
2022/04/25 01:13:15;;;;;;;9.02;4.57;;;;;;;;;;5028425;28;20053;-87
2022/04/25 01:15:41;;;;;;;8.63;4.43;;;;;;;;;;5009948;28;20054;-86
2022/04/25 01:18:07;;;;;;;7.03;4.32;;;;;;;;;;5034925;28;20100;-87
2022/04/25 01:20:33;;;;;;;8.48;4.25;;;;;;;;;;5027063;28;20057;-86
2022/04/25 01:28:37;;;;;;;9.80;4.75;;;;;;;;;;5008436;28;20041;-86
2022/04/25 01:31:03;;;;;;;10.40;4.88;;;;;;;;;;5030105;28;20041;-87
2022/04/25 01:33:30;;;;;;;7.28;4.45;;;;;;;;;;5029091;28;20053;-86
2022/04/25 01:35:56;;;;;;;10.65;4.55;;;;;;;;;;5023095;28;20050;-88
2022/04/25 01:38:22;;;;;;;8.15;4.38;;;;;;;;;;5012204;28;20041;-86
2022/04/25 01:40:50;;;;;;;9.18;4.55;;;;;;;;;;5028976;28;20615;-87
2022/04/25 01:43:16;;;;;;;8.68;4.70;;;;;;;;;;5028011;28;20569;-87
2022/04/25 01:45:45;;;;;;;12.27;4.97;;;;;;;;;;5019918;28;20176;-87
2022/04/25 01:48:11;;;;;;;9.73;4.68;;;;;;;;;;5013878;28;20111;-86
2022/04/25 01:50:37;;;;;;;8.65;4.47;;;;;;;;;;5028038;28;20136;-86
2022/04/25 01:53:03;;;;;;;7.90;4.50;;;;;;;;;;5011871;28;20116;-87
2022/04/25 01:55:29;;;;;;;7.78;4.93;;;;;;;;;;5012011;28;20081;-87
2022/04/25 01:57:55;;;;;;;8.75;4.68;;;;;;;;;;5022205;28;20509;-87
2022/04/25 02:00:21;;;;;;;8.38;4.75;;;;;;;;;;5020230;28;20088;-86
2022/04/25 02:02:47;;;;;;;8.13;5.30;;;;;;;;;;5020364;28;20122;-86
2022/04/25 02:05:13;;;;;;;7.68;4.82;;;;;;;;;;5034941;28;20475;-86
2022/04/25 02:07:39;;;;;;;10.82;5.03;;;;;;;;;;5004254;28;20049;-87
2022/04/25 02:10:06;;;;;;;11.15;5.35;;;;;;;;;;5030693;28;20049;-87
2022/04/25 02:12:32;;;;;;;5.88;4.75;;;;;;;;;;5027516;28;20077;-87
2022/04/25 02:14:58;;;;;;;7.22;4.70;;;;;;;;;;5019511;28;20068;-87
2022/04/25 02:17:24;;;;;;;7.82;4.30;;;;;;;;;;5011932;28;20519;-86
2022/04/25 02:19:50;;;;;;;11.55;5.00;;;;;;;;;;5022088;28;20065;-87
2022/04/25 02:22:17;;;;;;;10.05;4.45;;;;;;;;;;5028198;28;20091;-86
2022/04/25 02:24:43;;;;;;;9.43;5.18;;;;;;;;;;5013459;28;20124;-87
2022/04/25 02:27:09;;;;;;;9.15;5.30;;;;;;;;;;5030013;28;20053;-86
2022/04/25 02:29:38;;;;;;;9.52;4.85;;;;;;;;;;5027321;28;20041;-86
2022/04/25 02:32:05;;;;;;;12.93;5.43;;;;;;;;;;5008243;28;20060;-86
2022/04/25 02:34:31;;;;;;;7.63;4.60;;;;;;;;;;5022872;28;20050;-86
2022/04/25 02:36:58;;;;;;;7.30;4.68;;;;;;;;;;5013379;28;20056;-87
2022/04/25 02:39:24;;;;;;;8.98;5.30;;;;;;;;;;5013083;28;20069;-86
2022/04/25 02:41:51;;;;;;;7.75;5.00;;;;;;;;;;5032529;28;20064;-86
2022/04/25 02:44:17;;;;;;;7.85;4.80;;;;;;;;;;5004336;28;20065;-87
2022/04/25 02:46:43;;;;;;;9.98;5.00;;;;;;;;;;5024000;28;20049;-87
2022/04/25 02:49:09;;;;;;;8.52;5.88;;;;;;;;;;5037630;28;20100;-88
2022/04/25 02:51:35;;;;;;;7.53;5.32;;;;;;;;;;5034396;28;20057;-86
2022/04/25 02:54:01;;;;;;;8.38;5.25;;;;;;;;;;5016445;28;20052;-86
2022/04/25 02:56:27;;;;;;;9.43;5.00;;;;;;;;;;5033591;28;20054;-86
2022/04/25 02:58:53;;;;;;;7.90;5.22;;;;;;;;;;5028692;28;20476;-87
2022/04/25 03:01:19;;;;;;;8.02;5.28;;;;;;;;;;5031688;28;20034;-86
2022/04/25 03:03:45;;;;;;;8.45;5.40;;;;;;;;;;5010030;28;20072;-87
2022/04/25 03:06:11;;;;;;;8.73;5.60;;;;;;;;;;5012179;28;20548;-86
2022/04/25 03:08:38;;;;;;;8.52;5.53;;;;;;;;;;5031354;28;20050;-86
2022/04/25 03:11:05;;;;;;;10.15;5.45;;;;;;;;;;5031812;28;20455;-86
2022/04/25 03:13:32;;;;;;;9.43;5.40;;;;;;;;;;5029368;28;20520;-86
2022/04/25 03:15:58;;;;;;;9.32;5.55;;;;;;;;;;5014201;28;20057;-86
2022/04/25 03:18:24;;;;;;;8.05;6.25;;;;;;;;;;5024270;28;20552;-86
2022/04/25 03:20:51;;;;;;;9.80;5.63;;;;;;;;;;5014141;28;20041;-86
2022/04/25 03:23:18;;;;;;;10.93;5.68;;;;;;;;;;5013765;28;20049;-87
2022/04/25 03:25:45;;;;;;;7.13;5.57;;;;;;;;;;5029123;28;20425;-86
2022/04/25 03:28:11;;;;;;;9.55;5.80;;;;;;;;;;5027967;28;20052;-86
2022/04/25 03:30:37;;;;;;;10.68;5.75;;;;;;;;;;5030674;28;20107;-86
2022/04/25 03:33:03;;;;;;;8.75;5.60;;;;;;;;;;5011768;28;20070;-86
2022/04/25 03:35:30;;;;;;;9.75;5.80;;;;;;;;;;5035071;28;20111;-85
2022/04/25 03:37:59;;;;;;;7.95;5.35;;;;;;;;;;5036512;28;20428;-86
2022/04/25 03:40:26;;;;;;;8.85;5.07;;;;;;;;;;5024616;28;20046;-86
2022/04/25 03:42:55;;;;;;;9.52;5.45;;;;;;;;;;5005948;28;20056;-86
2022/04/25 03:45:21;;;;;;;9.02;5.70;;;;;;;;;;5014145;28;20069;-86
2022/04/25 03:47:47;;;;;;;11.25;5.53;;;;;;;;;;5029954;28;20100;-86
2022/04/25 03:50:15;;;;;;;9.50;4.93;;;;;;;;;;5023593;28;20060;-86
2022/04/25 03:52:42;;;;;;;7.10;5.20;;;;;;;;;;5030220;28;20132;-86
2022/04/25 03:57:54;;;;;;;10.40;4.70;;;;;;;;;;5031449;28;20033;-87
2022/04/25 04:00:21;;;;;;;8.32;4.57;;;;;;;;;;5023765;28;20041;-86
2022/04/25 04:02:47;;;;;;;10.43;4.72;;;;;;;;;;5013142;28;20048;-86
2022/04/25 04:05:13;;;;;;;9.05;4.55;;;;;;;;;;5030925;28;20041;-86
2022/04/25 04:07:39;;;;;;;9.27;5.22;;;;;;;;;;5014665;28;20473;-86
2022/04/25 04:10:06;;;;;;;8.43;4.97;;;;;;;;;;5023769;28;20496;-86
2022/04/25 04:12:32;;;;;;;7.53;4.40;;;;;;;;;;5028569;28;20493;-86
2022/04/25 04:14:59;;;;;;;12.65;5.05;;;;;;;;;;5006793;28;20139;-86
2022/04/25 04:17:25;;;;;;;9.23;4.60;;;;;;;;;;5007278;28;20052;-84
2022/04/25 04:19:53;;;;;;;10.70;4.90;;;;;;;;;;5008274;28;20041;-87
2022/04/25 04:22:21;;;;;;;10.05;5.03;;;;;;;;;;5028448;28;20054;-86
2022/04/25 04:24:46;;;;;;;11.55;4.70;;;;;;;;;;5030458;28;20042;-86
2022/04/25 04:27:14;;;;;;;9.05;4.32;;;;;;;;;;5013708;28;20107;-86
2022/04/25 04:29:40;;;;;;;8.55;4.85;;;;;;;;;;5035914;28;20033;-87
2022/04/25 04:32:07;;;;;;;8.93;4.72;;;;;;;;;;5025387;28;20203;-86
2022/04/25 04:34:33;;;;;;;7.95;4.97;;;;;;;;;;5030187;28;20041;-86
2022/04/25 04:36:59;;;;;;;9.95;5.07;;;;;;;;;;5013019;28;20053;-86
2022/04/25 04:39:25;;;;;;;6.97;4.47;;;;;;;;;;5026323;28;20033;-86
2022/04/25 04:41:51;;;;;;;10.27;4.90;;;;;;;;;;5008851;28;20531;-86
2022/04/25 04:44:17;;;;;;;7.03;4.38;;;;;;;;;;5018051;28;20037;-87
2022/04/25 04:46:43;;;;;;;7.90;4.70;;;;;;;;;;5030643;28;20060;-86
2022/04/25 04:49:10;;;;;;;9.45;4.97;;;;;;;;;;5009780;28;20045;-85
2022/04/25 04:51:36;;;;;;;11.57;5.00;;;;;;;;;;4998874;28;20100;-86
2022/04/25 04:54:02;;;;;;;7.68;4.68;;;;;;;;;;5023508;28;20087;-86
2022/04/25 04:56:32;;;;;;;8.38;4.80;;;;;;;;;;5028087;28;20466;-86
2022/04/25 04:58:59;;;;;;;11.65;4.85;;;;;;;;;;5026505;28;20572;-86
2022/04/25 05:01:26;;;;;;;7.05;4.28;;;;;;;;;;5006212;28;20091;-85
2022/04/25 05:03:52;;;;;;;8.07;4.63;;;;;;;;;;5025778;28;20053;-86
2022/04/25 05:06:18;;;;;;;9.15;4.68;;;;;;;;;;5011388;28;20192;-85
2022/04/25 05:08:44;;;;;;;8.27;4.30;;;;;;;;;;5003301;28;20497;-85
2022/04/25 05:11:11;;;;;;;7.28;4.50;;;;;;;;;;5024302;28;20500;-85
2022/04/25 05:13:37;;;;;;;8.70;4.65;;;;;;;;;;5029337;28;20045;-86
2022/04/25 05:16:04;;;;;;;8.93;4.80;;;;;;;;;;5006448;28;20497;-86
2022/04/25 05:18:33;;;;;;;9.57;4.80;;;;;;;;;;5011017;28;20429;-86
2022/04/25 05:21:00;;;;;;;8.48;4.63;;;;;;;;;;5008740;28;20072;-87
2022/04/25 05:23:26;;;;;;;9.52;4.90;;;;;;;;;;5018683;28;20026;-85
2022/04/25 05:25:52;;;;;;;6.60;4.53;;;;;;;;;;5034385;28;20118;-85
2022/04/25 05:28:18;;;;;;;9.65;4.25;;;;;;;;;;5027347;28;20061;-86
2022/04/25 05:30:44;;;;;;;6.80;4.45;;;;;;;;;;5019470;28;20473;-86
2022/04/25 05:33:10;;;;;;;7.50;4.40;;;;;;;;;;5012054;28;20053;-87
2022/04/25 05:35:37;;;;;;;8.15;4.38;;;;;;;;;;5024952;28;20053;-85
2022/04/25 05:38:06;;;;;;;9.35;4.78;;;;;;;;;;4997507;28;20048;-86
2022/04/25 05:40:32;;;;;;;9.85;4.50;;;;;;;;;;5025371;28;20042;-85
2022/04/25 05:42:59;;;;;;;9.45;4.75;;;;;;;;;;5022345;28;20485;-85
2022/04/25 05:45:26;;;;;;;9.00;4.70;;;;;;;;;;5021440;28;20045;-86
2022/04/25 05:47:56;;;;;;;8.38;4.55;;;;;;;;;;5013616;28;20084;-87
2022/04/25 05:53:08;;;;;;;9.45;4.20;;;;;;;;;;5029580;28;20549;-85
2022/04/25 05:55:34;;;;;;;9.15;4.10;;;;;;;;;;5032721;28;20052;-85
2022/04/25 05:58:03;;;;;;;7.55;4.00;;;;;;;;;;5012961;28;20111;-84
2022/04/25 06:00:32;;;;;;;9.77;4.40;;;;;;;;;;5026050;28;20084;-85
2022/04/25 06:02:58;;;;;;;8.35;4.18;;;;;;;;;;5015598;28;20396;-83
2022/04/25 06:05:24;;;;;;;11.07;4.13;;;;;;;;;;5019278;28;20046;-84
2022/04/25 06:07:51;;;;;;;7.15;4.40;;;;;;;;;;5030342;28;20103;-85
2022/04/25 06:10:18;;;;;;;10.20;4.32;;;;;;;;;;5017205;28;20053;-85
2022/04/25 06:12:52;;;;;;;8.15;3.97;;;;;;;;;;5033976;28;20045;-85
2022/04/25 06:15:20;;;;;;;7.68;4.22;;;;;;;;;;5009123;28;20049;-84
2022/04/25 06:17:46;;;;;;;8.75;4.15;;;;;;;;;;5033082;28;20053;-84
2022/04/25 06:20:12;;;;;;;6.05;4.00;;;;;;;;;;5032125;28;20040;-84
2022/04/25 06:22:39;;;;;;;8.10;4.00;;;;;;;;;;5007400;28;20046;-85
2022/04/25 06:25:05;;;;;;;10.45;4.22;;;;;;;;;;5034586;28;20056;-84
2022/04/25 06:27:31;;;;;;;8.73;4.38;;;;;;;;;;5014762;28;20041;-85
2022/04/25 06:29:57;;;;;;;8.63;4.45;;;;;;;;;;5010296;28;20076;-85
2022/04/25 06:32:24;;;;;;;8.15;4.03;;;;;;;;;;5034452;28;20511;-84
2022/04/25 06:34:50;;;;;;;9.05;4.70;;;;;;;;;;5007216;28;20044;-85
2022/04/25 06:37:16;;;;;;;8.60;4.50;;;;;;;;;;5031818;28;20508;-71
2022/04/25 06:39:42;;;;;;;9.82;4.88;;;;;;;;;;5012391;28;20049;-78
2022/04/25 06:42:09;;;;;;;11.30;4.28;;;;;;;;;;5030694;28;20041;-77
2022/04/25 06:44:36;;;;;;;8.02;4.38;;;;;;;;;;5032357;28;20085;-78
2022/04/25 06:47:02;;;;;;;9.98;4.25;;;;;;;;;;5024373;28;20042;-78
2022/04/25 06:49:28;;;;;;;9.25;5.00;;;;;;;;;;4996327;28;20466;-77
2022/04/25 06:51:58;;;;;;;8.23;4.25;;;;;;;;;;5025434;28;20049;-78
2022/04/25 06:54:25;;;;;;;6.10;3.90;;;;;;;;;;5016691;28;20073;-78
2022/04/25 06:56:51;;;;;;;10.00;3.80;;;;;;;;;;5001853;28;20054;-78
2022/04/25 06:59:19;;;;;;;8.38;4.30;;;;;;;;;;5024812;28;20440;-78
2022/04/25 07:01:45;;;;;;;7.80;4.18;;;;;;;;;;5026826;28;20053;-77
2022/04/25 07:04:13;;;;;;;9.38;4.15;;;;;;;;;;5026478;28;20103;-77
2022/04/25 07:06:40;;;;;;;7.72;3.95;;;;;;;;;;5027053;28;20044;-77
2022/04/25 07:09:07;;;;;;;6.80;3.90;;;;;;;;;;5033723;28;20046;-77
2022/04/25 07:11:33;;;;;;;10.65;4.82;;;;;;;;;;5009371;28;20096;-77
2022/04/25 07:14:02;;;;;;;8.38;4.03;;;;;;;;;;5032574;28;20053;-77
2022/04/25 07:16:28;;;;;;;8.18;4.43;;;;;;;;;;5025621;28;20049;-77
2022/04/25 07:18:57;;;;;;;7.55;4.30;;;;;;;;;;5014736;28;20041;-77
2022/04/25 07:29:38;;;;;;;6.97;3.90;;;;;;;;;;5030152;28;20088;-77
2022/04/25 07:32:04;;;;;;;8.95;4.70;;;;;;;;;;5021724;28;20045;-77
2022/04/25 07:34:30;;;;;;;7.80;4.07;;;;;;;;;;5032146;28;20095;-77
2022/04/25 07:36:56;;;;;;;8.27;3.97;;;;;;;;;;5031452;28;20054;-77
2022/04/25 07:39:23;;;;;;;7.20;4.60;;;;;;;;;;5006358;28;20074;-77
2022/04/25 07:41:49;;;;;;;10.63;3.88;;;;;;;;;;5029384;28;20042;-77
2022/04/25 07:44:15;;;;;;;5.65;3.92;;;;;;;;;;5030459;28;20496;-77
2022/04/25 07:46:41;;;;;;;5.93;3.90;;;;;;;;;;5030515;28;20515;-77
2022/04/25 07:49:09;;;;;;;8.73;4.15;;;;;;;;;;5014400;28;20133;-78
2022/04/25 07:51:35;;;;;;;6.55;4.03;;;;;;;;;;5027079;28;20532;-77
2022/04/25 07:54:01;;;;;;;9.85;4.35;;;;;;;;;;5029633;28;20053;-77
2022/04/25 07:56:27;;;;;;;6.72;4.35;;;;;;;;;;5024862;28;20080;-77
2022/04/25 07:58:53;;;;;;;9.18;3.90;;;;;;;;;;5027196;28;20448;-77
2022/04/25 08:01:19;;;;;;;8.40;4.38;;;;;;;;;;5031547;28;20046;-77
2022/04/25 08:03:45;;;;;;;7.90;4.20;;;;;;;;;;5029560;28;21230;-77
2022/04/25 08:06:12;;;;;;;7.28;4.00;;;;;;;;;;5021897;28;20112;-78
2022/04/25 08:08:38;;;;;;;7.82;4.20;;;;;;;;;;5029795;28;20046;-77
2022/04/25 08:11:04;;;;;;;7.15;4.07;;;;;;;;;;5011988;28;20075;-77
2022/04/25 08:18:59;;;;;;;6.78;4.50;;;;;;;;;;5030870;28;20084;-77
2022/04/25 08:21:25;;;;;;;7.93;3.83;;;;;;;;;;5031088;28;20119;-77
2022/04/25 08:23:51;;;;;;;5.45;3.90;;;;;;;;;;5023879;28;20041;-78
2022/04/25 08:26:17;;;;;;;6.65;4.15;;;;;;;;;;5011271;28;20049;-77
2022/04/25 08:28:43;;;;;;;7.68;4.53;;;;;;;;;;5029480;28;20386;-78
2022/04/25 08:31:09;;;;;;;7.00;4.13;;;;;;;;;;5031195;28;20041;-78
2022/04/25 08:33:36;;;;;;;6.63;3.83;;;;;;;;;;5029904;28;20038;-77
2022/04/25 08:36:03;;;;;;;5.65;3.67;;;;;;;;;;5027309;28;20038;-77
2022/04/25 08:38:29;;;;;;;7.00;4.20;;;;;;;;;;5006548;28;20477;-77
2022/04/25 08:40:55;;;;;;;6.30;4.00;;;;;;;;;;5013503;28;20050;-76
2022/04/25 08:43:21;;;;;;;9.18;3.90;;;;;;;;;;5028927;28;20049;-77
2022/04/25 08:45:47;;;;;;;6.20;3.85;;;;;;;;;;5013334;28;20504;-78
2022/04/25 08:48:14;;;;;;;6.15;3.90;;;;;;;;;;5024930;28;20041;-78
2022/04/25 08:50:41;;;;;;;7.53;4.00;;;;;;;;;;5007758;28;20065;-77
2022/04/25 08:53:08;;;;;;;7.10;3.88;;;;;;;;;;5008626;28;20398;-77
2022/04/25 08:55:34;;;;;;;7.55;4.13;;;;;;;;;;5007914;28;20053;-78
2022/04/25 08:58:00;;;;;;;6.10;3.83;;;;;;;;;;4999585;28;20173;-78
2022/04/25 09:00:26;;;;;;;8.10;3.97;;;;;;;;;;5001357;28;20117;-77
2022/04/25 09:02:54;;;;;;;7.15;3.50;;;;;;;;;;5007929;28;20042;-78
2022/04/25 09:05:21;;;;;;;7.47;3.40;;;;;;;;;;5006939;28;20123;-78
2022/04/25 09:07:47;;;;;;;6.30;3.50;;;;;;;;;;5008603;28;20038;-77
2022/04/25 09:10:15;;;;;;;6.20;3.78;;;;;;;;;;5007136;28;20078;-77
2022/04/25 09:12:42;;;;;;;5.15;3.95;;;;;;;;;;5002474;28;20061;-77
2022/04/25 09:15:09;;;;;;;6.00;3.50;;;;;;;;;;5007991;28;20060;-78
2022/04/25 09:17:38;;;;;;;5.18;3.28;;;;;;;;;;5001045;28;20054;-77
2022/04/25 09:20:05;;;;;;;7.20;3.53;;;;;;;;;;5009542;28;20536;-77
2022/04/25 09:22:39;;;;;;;5.93;3.38;;;;;;;;;;5011497;28;20050;-78
2022/04/25 09:25:12;;;;;;;7.88;3.78;;;;;;;;;;5009519;28;20045;-78
2022/04/25 09:27:39;;;;;;;5.00;3.47;;;;;;;;;;5009656;28;20129;-77
2022/04/25 09:30:13;;;;;;;6.32;3.40;;;;;;;;;;5007366;28;20382;-77
2022/04/25 09:32:40;;;;;;;5.22;3.70;;;;;;;;;;5009160;28;20061;-78
2022/04/25 09:35:44;;;;;;;6.97;3.45;;;;;;;;;;5009101;28;20137;-77
2022/04/25 09:38:10;;;;;;;7.93;3.65;;;;;;;;;;4975122;28;20046;-77
2022/04/25 09:40:38;;;;;;;6.25;3.47;;;;;;;;;;4993207;28;20046;-77
2022/04/25 09:43:08;;;;;;;6.53;3.20;;;;;;;;;;4994543;28;20050;-77
2022/04/25 09:45:37;;;;;;;4.80;3.20;;;;;;;;;;5010882;28;20497;-78
2022/04/25 09:48:08;;;;;;;7.07;4.00;;;;;;;;;;5013727;28;20049;-80
2022/04/25 09:50:34;;;;;;;6.93;3.83;;;;;;;;;;5021123;28;20093;-78
2022/04/25 09:53:02;;;;;;;6.68;3.63;;;;;;;;;;4997258;28;20089;-78
2022/04/25 09:55:32;;;;;;;7.15;4.20;;;;;;;;;;5012516;28;20079;-79
2022/04/25 09:57:58;;;;;;;7.10;3.85;;;;;;;;;;5015377;28;20049;-79
2022/04/25 10:00:36;;;;;;;8.40;3.72;;;;;;;;;;5007904;28;20045;-79
2022/04/25 10:03:03;;;;;;;5.05;3.55;;;;;;;;;;4997477;28;20049;-78
2022/04/25 10:05:36;;;;;;;3.63;3.33;;;;;;;;;;5003697;28;20469;-79
2022/04/25 10:08:04;;;;;;;6.13;3.50;;;;;;;;;;5014228;28;20053;-79
2022/04/25 10:10:31;;;;;;;7.13;3.50;;;;;;;;;;5030251;28;20508;-79
2022/04/25 10:12:57;;;;;;;6.30;3.92;;;;;;;;;;5014035;28;20109;-78
2022/04/25 10:15:23;;;;;;;4.78;3.30;;;;;;;;;;5012064;28;20588;-78
2022/04/25 10:17:52;;;;;;;5.40;3.13;;;;;;;;;;5023662;28;20063;-78
2022/04/25 10:20:19;;;;;;;5.47;3.47;;;;;;;;;;5023515;28;20037;-76
2022/04/25 10:22:45;;;;;;;3.80;2.97;;;;;;;;;;5014019;28;20107;-77
2022/04/25 10:25:11;;;;;;;6.50;3.20;;;;;;;;;;5014649;28;20653;-77
2022/04/25 10:27:38;;;;;;;5.88;3.10;;;;;;;;;;5013067;28;20060;-77
2022/04/25 10:30:09;;;;;;;6.57;3.50;;;;;;;;;;5015659;28;20495;-77
2022/04/25 10:32:35;;;;;;;5.40;3.17;;;;;;;;;;5015512;28;20489;-78
2022/04/25 10:35:01;;;;;;;5.80;3.20;;;;;;;;;;5011856;28;20069;-77
2022/04/25 10:37:29;;;;;;;5.72;3.47;;;;;;;;;;5030823;28;20099;-77
2022/04/25 10:39:56;;;;;;;4.85;3.45;;;;;;;;;;5022543;28;20458;-78
2022/04/25 10:45:10;;;;;;;5.90;3.80;;;;;;;;;;5012297;28;20045;-79
2022/04/25 10:47:36;;;;;;;4.97;3.05;;;;;;;;;;5030311;28;20053;-79
2022/04/25 10:50:04;;;;;;;6.22;3.70;;;;;;;;;;5032158;28;20116;-79
2022/04/25 10:55:26;;;;;;;7.57;3.40;;;;;;;;;;5011336;28;21298;-78
2022/04/25 10:58:05;;;;;;;8.15;3.58;;;;;;;;;;5025950;28;20064;-79
2022/04/25 11:00:37;;;;;;;6.10;3.53;;;;;;;;;;5029437;28;20049;-79
2022/04/25 11:03:04;;;;;;;6.63;3.67;;;;;;;;;;5010636;28;20041;-79
2022/04/25 11:05:29;;;;;;;7.15;3.72;;;;;;;;;;5030501;28;20060;-78
2022/04/25 11:08:15;;;;;;;6.40;3.40;;;;;;;;;;5012320;28;20397;-78
2022/04/25 11:10:44;;;;;;;8.30;3.55;;;;;;;;;;5027987;28;20089;-78
2022/04/25 11:13:12;;;;;;;7.03;4.03;;;;;;;;;;5005444;28;20500;-77
2022/04/25 11:15:39;;;;;;;7.28;3.80;;;;;;;;;;5008417;28;20107;-79
2022/04/25 11:18:37;;;;;;;5.97;3.35;;;;;;;;;;5025224;28;20488;-78
2022/04/25 11:21:07;;;;;;;7.63;3.60;;;;;;;;;;5011604;28;20060;-78
2022/04/25 11:23:47;;;;;;;7.40;3.85;;;;;;;;;;5013901;28;20457;-78
2022/04/25 11:26:22;;;;;;;7.38;3.55;;;;;;;;;;5001176;28;20053;-78
2022/04/25 11:29:07;;;;;;;7.68;3.55;;;;;;;;;;5008441;28;20073;-78
2022/04/25 11:31:38;;;;;;;8.60;3.63;;;;;;;;;;5030555;28;20053;-77
2022/04/25 11:34:11;;;;;;;9.68;3.85;;;;;;;;;;5029700;28;20125;-77
2022/04/25 11:36:38;;;;;;;8.05;3.40;;;;;;;;;;5030839;28;20077;-77
2022/04/25 11:41:49;;;;;;;8.75;3.30;;;;;;;;;;5005966;28;20386;-78
2022/04/25 11:44:15;;;;;;;6.10;3.60;;;;;;;;;;5000662;28;20042;-78
2022/04/25 11:46:41;;;;;;;9.10;3.60;;;;;;;;;;5022488;28;20079;-78
2022/04/25 11:49:08;;;;;;;6.82;3.25;;;;;;;;;;5010706;28;20057;-79
2022/04/25 11:51:44;;;;;;;6.55;3.28;;;;;;;;;;5024597;28;20555;-78
2022/04/25 11:54:11;;;;;;;4.80;3.35;;;;;;;;;;5011442;28;20437;-78
2022/04/25 11:56:39;;;;;;;5.72;3.45;;;;;;;;;;5022972;28;20049;-78
2022/04/25 11:59:09;;;;;;;5.43;2.92;;;;;;;;;;5019841;28;20124;-78
2022/04/25 12:01:36;;;;;;;4.80;3.03;;;;;;;;;;5024931;28;20489;-78
2022/04/25 12:04:15;;;;;;;6.18;3.30;;;;;;;;;;5023905;28;20517;-79
2022/04/25 12:06:48;;;;;;;7.25;3.20;;;;;;;;;;5011568;28;20052;-78
2022/04/25 12:17:41;;;;;;;5.13;3.47;;;;;;;;;;5018236;28;20038;-79
2022/04/25 12:20:10;;;;;;;7.28;3.50;;;;;;;;;;5012825;28;20096;-79
2022/04/25 12:22:37;;;;;;;5.70;3.38;;;;;;;;;;5028783;28;20123;-79
2022/04/25 12:25:13;;;;;;;6.82;3.42;;;;;;;;;;5021966;28;20060;-78
2022/04/25 12:27:41;;;;;;;6.07;3.15;;;;;;;;;;5027430;28;20481;-79
2022/04/25 12:30:09;;;;;;;5.78;3.22;;;;;;;;;;5013307;28;20061;-78
2022/04/25 12:32:35;;;;;;;5.72;3.35;;;;;;;;;;5012090;28;20052;-77
2022/04/25 12:35:01;;;;;;;4.90;3.28;;;;;;;;;;5013098;28;20228;-78
2022/04/25 12:37:27;;;;;;;6.53;3.65;;;;;;;;;;5010247;28;20123;-77
2022/04/25 12:40:06;;;;;;;4.70;3.53;;;;;;;;;;5028278;28;20085;-77
2022/04/25 12:42:51;;;;;;;5.45;3.42;;;;;;;;;;5002603;28;20049;-77
2022/04/25 12:45:18;;;;;;;7.63;3.50;;;;;;;;;;5028819;28;20057;-78
2022/04/25 12:47:44;;;;;;;6.20;3.50;;;;;;;;;;5005481;28;20052;-78
2022/04/25 12:50:11;;;;;;;5.97;3.33;;;;;;;;;;5027710;28;20060;-78
2022/04/25 12:52:50;;;;;;;7.07;3.70;;;;;;;;;;5028009;28;20056;-78
2022/04/25 12:55:16;;;;;;;6.97;3.38;;;;;;;;;;5030913;28;20077;-79
2022/04/25 12:57:52;;;;;;;6.72;3.22;;;;;;;;;;5028356;28;20090;-79
2022/04/25 13:00:18;;;;;;;9.18;3.15;;;;;;;;;;5019108;28;20045;-79
2022/04/25 13:02:44;;;;;;;3.88;3.08;;;;;;;;;;5009814;28;20132;-79
2022/04/25 13:05:15;;;;;;;5.43;3.33;;;;;;;;;;5011346;28;20465;-79
2022/04/25 13:07:42;;;;;;;4.00;3.03;;;;;;;;;;5028025;28;20401;-77
2022/04/25 13:10:11;;;;;;;5.60;3.28;;;;;;;;;;5022656;28;20050;-77
2022/04/25 13:12:39;;;;;;;5.05;2.75;;;;;;;;;;5016687;28;20074;-77
2022/04/25 13:15:06;;;;;;;3.08;2.78;;;;;;;;;;5007582;28;20126;-77
2022/04/25 13:17:32;;;;;;;5.18;2.83;;;;;;;;;;5022547;28;20421;-78
2022/04/25 13:19:58;;;;;;;4.40;2.55;;;;;;;;;;5029766;28;20051;-78
2022/04/25 13:22:25;;;;;;;3.80;2.70;;;;;;;;;;5027001;28;20037;-78
2022/04/25 13:24:51;;;;;;;6.68;2.70;;;;;;;;;;5012530;28;20099;-79
2022/04/25 13:27:26;;;;;;;5.47;2.35;;;;;;;;;;5027032;28;20438;-78
2022/04/25 13:29:52;;;;;;;5.07;2.47;;;;;;;;;;5011600;28;20045;-79
2022/04/25 13:32:18;;;;;;;4.80;2.65;;;;;;;;;;5026378;28;20100;-78
2022/04/25 13:34:44;;;;;;;4.38;2.53;;;;;;;;;;5010915;28;20488;-78
2022/04/25 13:37:11;;;;;;;5.43;2.42;;;;;;;;;;5014508;28;20532;-78
2022/04/25 13:39:38;;;;;;;2.95;2.58;;;;;;;;;;5025349;28;20050;-78
2022/04/25 13:42:04;;;;;;;3.10;2.28;;;;;;;;;;5030543;28;20049;-78
2022/04/25 13:44:30;;;;;;;3.15;2.50;;;;;;;;;;5010022;28;20067;-78
2022/04/25 13:46:57;;;;;;;3.38;2.35;;;;;;;;;;5012229;28;20060;-78
2022/04/25 13:49:23;;;;;;;3.90;2.40;;;;;;;;;;5026063;28;20037;-78
2022/04/25 13:51:49;;;;;;;4.85;2.80;;;;;;;;;;5010590;28;20064;-79
2022/04/25 13:54:15;;;;;;;3.53;2.50;;;;;;;;;;5001740;28;20397;-78
2022/04/25 13:56:42;;;;;;;5.32;2.30;;;;;;;;;;5012393;28;20061;-79
2022/04/25 13:59:08;;;;;;;3.92;2.70;;;;;;;;;;5028793;28;20120;-79
2022/04/25 14:01:34;;;;;;;3.90;2.63;;;;;;;;;;5027578;28;20092;-78
2022/04/25 14:04:00;;;;;;;2.70;2.45;;;;;;;;;;5029810;28;20052;-78
2022/04/25 14:06:26;;;;;;;3.75;2.75;;;;;;;;;;5011907;28;20053;-77
2022/04/25 14:08:53;;;;;;;2.88;2.47;;;;;;;;;;5030183;28;20049;-78
2022/04/25 14:11:19;;;;;;;2.78;2.47;;;;;;;;;;5028879;28;20041;-78
2022/04/25 14:13:46;;;;;;;4.85;2.40;;;;;;;;;;5009010;28;20050;-78
2022/04/25 14:16:12;;;;;;;4.40;2.65;;;;;;;;;;5029508;28;20042;-78
2022/04/25 14:18:41;;;;;;;3.05;2.30;;;;;;;;;;5028760;28;20481;-77
2022/04/25 14:21:08;;;;;;;4.20;2.50;;;;;;;;;;5031556;28;20124;-77
2022/04/25 14:23:34;;;;;;;2.97;2.17;;;;;;;;;;5022453;28;20038;-77
2022/04/25 14:26:04;;;;;;;2.88;2.40;;;;;;;;;;5013528;28;20132;-76
2022/04/25 14:28:30;;;;;;;5.88;2.30;;;;;;;;;;5010239;28;20050;-76
2022/04/25 14:30:56;;;;;;;4.18;2.30;;;;;;;;;;5031211;28;20462;-76
2022/04/25 14:33:22;;;;;;;4.38;2.70;;;;;;;;;;4996185;28;20104;-76
2022/04/25 14:35:49;;;;;;;4.43;2.40;;;;;;;;;;5004917;28;20409;-76
2022/04/25 14:38:22;;;;;;;2.95;2.40;;;;;;;;;;5034410;28;20099;-76
2022/04/25 14:40:48;;;;;;;3.70;2.40;;;;;;;;;;5017686;28;20074;-76
2022/04/25 14:43:14;;;;;;;2.60;2.30;;;;;;;;;;5012780;28;20104;-76
2022/04/25 14:45:40;;;;;;;3.85;2.25;;;;;;;;;;5029404;28;20132;-76
2022/04/25 14:48:06;;;;;;;3.42;2.28;;;;;;;;;;5015348;28;20045;-76
2022/04/25 14:56:04;;;;;;;3.00;2.50;;;;;;;;;;5011805;28;20057;-76
2022/04/25 14:58:31;;;;;;;3.78;2.15;;;;;;;;;;5028095;28;20500;-76
2022/04/25 15:00:57;;;;;;;3.97;2.60;;;;;;;;;;5016217;28;20069;-76
2022/04/25 15:03:23;;;;;;;3.50;2.30;;;;;;;;;;5033022;28;20107;-76
2022/04/25 15:05:49;;;;;;;2.78;2.25;;;;;;;;;;5013237;28;20075;-80
2022/04/25 15:08:15;;;;;;;3.38;2.55;;;;;;;;;;5034017;28;20216;-78
2022/04/25 15:10:42;;;;;;;5.43;2.50;;;;;;;;;;5030358;28;20057;-76
2022/04/25 15:13:09;;;;;;;4.45;2.95;;;;;;;;;;5011154;28;20120;-77
2022/04/25 15:15:36;;;;;;;4.35;2.40;;;;;;;;;;5001726;28;20045;-77
2022/04/25 15:18:06;;;;;;;3.72;2.70;;;;;;;;;;5032545;28;20355;-77
2022/04/25 15:20:33;;;;;;;2.65;2.30;;;;;;;;;;5019519;28;20405;-77
2022/04/25 15:23:02;;;;;;;3.97;2.58;;;;;;;;;;5009144;28;20123;-77
2022/04/25 15:25:29;;;;;;;4.70;2.40;;;;;;;;;;5030425;28;20068;-77
2022/04/25 15:27:55;;;;;;;4.82;2.95;;;;;;;;;;5013457;28;20133;-77
2022/04/25 15:30:21;;;;;;;3.47;2.30;;;;;;;;;;5027584;28;20121;-77